sensor_id;sensor_type;location;lat;lon;timestamp;P1;durP1;ratioP1;P2;durP2;ratioP2
62911;SDS011;49111;51.028;4.218;2023-12-28T00:01:29;4.50;;;2.13;;
62911;SDS011;49111;51.028;4.218;2023-12-28T00:03:55;3.10;;;2.00;;
62911;SDS011;49111;51.028;4.218;2023-12-28T00:06:21;3.78;;;2.30;;
62911;SDS011;49111;51.028;4.218;2023-12-28T00:08:47;3.90;;;2.92;;
62911;SDS011;49111;51.028;4.218;2023-12-28T00:11:13;4.57;;;2.35;;
62911;SDS011;49111;51.028;4.218;2023-12-28T00:13:39;3.40;;;2.22;;
62911;SDS011;49111;51.028;4.218;2023-12-28T00:16:05;9.40;;;2.95;;
62911;SDS011;49111;51.028;4.218;2023-12-28T00:18:31;3.83;;;2.20;;
62911;SDS011;49111;51.028;4.218;2023-12-28T00:20:57;3.60;;;1.83;;
62911;SDS011;49111;51.028;4.218;2023-12-28T00:23:23;5.75;;;2.30;;
62911;SDS011;49111;51.028;4.218;2023-12-28T00:25:52;3.05;;;1.98;;
62911;SDS011;49111;51.028;4.218;2023-12-28T00:28:17;4.22;;;2.45;;
62911;SDS011;49111;51.028;4.218;2023-12-28T00:30:45;4.88;;;2.50;;
62911;SDS011;49111;51.028;4.218;2023-12-28T00:33:11;7.82;;;2.97;;
62911;SDS011;49111;51.028;4.218;2023-12-28T00:35:37;3.95;;;2.58;;
62911;SDS011;49111;51.028;4.218;2023-12-28T00:38:03;3.78;;;1.90;;
62911;SDS011;49111;51.028;4.218;2023-12-28T00:40:29;6.97;;;2.70;;
62911;SDS011;49111;51.028;4.218;2023-12-28T00:42:55;4.55;;;2.55;;
62911;SDS011;49111;51.028;4.218;2023-12-28T00:45:21;5.47;;;2.20;;
62911;SDS011;49111;51.028;4.218;2023-12-28T00:47:47;4.90;;;2.00;;
62911;SDS011;49111;51.028;4.218;2023-12-28T00:50:13;5.95;;;2.70;;
62911;SDS011;49111;51.028;4.218;2023-12-28T00:52:40;4.00;;;2.58;;
62911;SDS011;49111;51.028;4.218;2023-12-28T00:55:06;4.68;;;2.60;;
62911;SDS011;49111;51.028;4.218;2023-12-28T00:57:33;3.78;;;2.38;;
62911;SDS011;49111;51.028;4.218;2023-12-28T01:00:00;6.80;;;2.45;;
62911;SDS011;49111;51.028;4.218;2023-12-28T01:02:26;4.32;;;2.20;;
62911;SDS011;49111;51.028;4.218;2023-12-28T01:04:53;5.90;;;2.58;;
62911;SDS011;49111;51.028;4.218;2023-12-28T01:07:19;4.53;;;2.45;;
62911;SDS011;49111;51.028;4.218;2023-12-28T01:09:44;5.07;;;2.50;;
62911;SDS011;49111;51.028;4.218;2023-12-28T01:12:10;7.78;;;2.78;;
62911;SDS011;49111;51.028;4.218;2023-12-28T01:14:36;5.30;;;3.08;;
62911;SDS011;49111;51.028;4.218;2023-12-28T01:17:02;4.75;;;2.22;;
62911;SDS011;49111;51.028;4.218;2023-12-28T01:19:28;6.90;;;2.83;;
62911;SDS011;49111;51.028;4.218;2023-12-28T01:21:54;9.10;;;2.50;;
62911;SDS011;49111;51.028;4.218;2023-12-28T01:24:19;5.40;;;2.45;;
62911;SDS011;49111;51.028;4.218;2023-12-28T01:26:46;4.72;;;2.53;;
62911;SDS011;49111;51.028;4.218;2023-12-28T01:29:12;5.20;;;2.53;;
62911;SDS011;49111;51.028;4.218;2023-12-28T01:31:38;3.42;;;2.42;;
62911;SDS011;49111;51.028;4.218;2023-12-28T01:34:04;4.88;;;2.47;;
62911;SDS011;49111;51.028;4.218;2023-12-28T01:36:32;4.57;;;2.70;;
62911;SDS011;49111;51.028;4.218;2023-12-28T01:38:58;5.65;;;2.75;;
62911;SDS011;49111;51.028;4.218;2023-12-28T01:41:24;4.97;;;2.67;;
62911;SDS011;49111;51.028;4.218;2023-12-28T01:43:51;4.85;;;2.35;;
62911;SDS011;49111;51.028;4.218;2023-12-28T01:46:17;5.47;;;2.72;;
62911;SDS011;49111;51.028;4.218;2023-12-28T01:48:46;5.32;;;2.67;;
62911;SDS011;49111;51.028;4.218;2023-12-28T01:51:14;5.90;;;3.20;;
62911;SDS011;49111;51.028;4.218;2023-12-28T01:53:41;5.38;;;2.50;;
62911;SDS011;49111;51.028;4.218;2023-12-28T01:56:08;5.32;;;2.22;;
62911;SDS011;49111;51.028;4.218;2023-12-28T01:58:35;5.68;;;2.60;;
62911;SDS011;49111;51.028;4.218;2023-12-28T02:01:02;5.18;;;2.22;;
62911;SDS011;49111;51.028;4.218;2023-12-28T02:03:29;7.10;;;3.22;;
62911;SDS011;49111;51.028;4.218;2023-12-28T02:05:55;6.18;;;2.22;;
62911;SDS011;49111;51.028;4.218;2023-12-28T02:08:21;4.43;;;2.33;;
62911;SDS011;49111;51.028;4.218;2023-12-28T02:10:47;3.88;;;2.17;;
62911;SDS011;49111;51.028;4.218;2023-12-28T02:13:13;4.75;;;2.15;;
62911;SDS011;49111;51.028;4.218;2023-12-28T02:15:39;4.03;;;1.65;;
62911;SDS011;49111;51.028;4.218;2023-12-28T02:18:09;5.20;;;2.63;;
62911;SDS011;49111;51.028;4.218;2023-12-28T02:20:40;3.20;;;1.90;;
62911;SDS011;49111;51.028;4.218;2023-12-28T02:23:08;7.88;;;2.35;;
62911;SDS011;49111;51.028;4.218;2023-12-28T02:25:35;3.88;;;2.30;;
62911;SDS011;49111;51.028;4.218;2023-12-28T02:28:01;7.63;;;2.47;;
62911;SDS011;49111;51.028;4.218;2023-12-28T02:30:28;5.38;;;2.08;;
62911;SDS011;49111;51.028;4.218;2023-12-28T02:35:45;4.95;;;2.05;;
62911;SDS011;49111;51.028;4.218;2023-12-28T02:38:17;7.95;;;2.78;;
62911;SDS011;49111;51.028;4.218;2023-12-28T02:40:44;5.28;;;2.08;;
62911;SDS011;49111;51.028;4.218;2023-12-28T02:43:11;3.88;;;1.85;;
62911;SDS011;49111;51.028;4.218;2023-12-28T02:45:38;6.97;;;2.13;;
62911;SDS011;49111;51.028;4.218;2023-12-28T02:48:04;4.30;;;2.28;;
62911;SDS011;49111;51.028;4.218;2023-12-28T02:50:31;6.28;;;2.60;;
62911;SDS011;49111;51.028;4.218;2023-12-28T02:52:58;3.55;;;2.20;;
62911;SDS011;49111;51.028;4.218;2023-12-28T02:55:24;5.90;;;2.15;;
62911;SDS011;49111;51.028;4.218;2023-12-28T02:57:50;4.25;;;2.25;;
62911;SDS011;49111;51.028;4.218;2023-12-28T03:00:17;5.05;;;1.98;;
62911;SDS011;49111;51.028;4.218;2023-12-28T03:02:43;4.85;;;2.05;;
62911;SDS011;49111;51.028;4.218;2023-12-28T03:05:09;8.07;;;2.35;;
62911;SDS011;49111;51.028;4.218;2023-12-28T03:07:35;6.32;;;2.40;;
62911;SDS011;49111;51.028;4.218;2023-12-28T03:10:02;5.20;;;2.55;;
62911;SDS011;49111;51.028;4.218;2023-12-28T03:12:29;2.95;;;1.90;;
62911;SDS011;49111;51.028;4.218;2023-12-28T03:14:55;6.10;;;2.33;;
62911;SDS011;49111;51.028;4.218;2023-12-28T03:17:21;6.72;;;2.30;;
62911;SDS011;49111;51.028;4.218;2023-12-28T03:19:47;6.30;;;2.30;;
62911;SDS011;49111;51.028;4.218;2023-12-28T03:22:13;6.25;;;2.30;;
62911;SDS011;49111;51.028;4.218;2023-12-28T03:24:39;6.38;;;2.50;;
62911;SDS011;49111;51.028;4.218;2023-12-28T03:27:05;4.82;;;3.35;;
62911;SDS011;49111;51.028;4.218;2023-12-28T03:29:32;7.40;;;2.47;;
62911;SDS011;49111;51.028;4.218;2023-12-28T03:31:59;5.03;;;2.70;;
62911;SDS011;49111;51.028;4.218;2023-12-28T03:34:26;6.80;;;2.90;;
62911;SDS011;49111;51.028;4.218;2023-12-28T03:36:55;4.63;;;2.50;;
62911;SDS011;49111;51.028;4.218;2023-12-28T03:39:22;5.57;;;2.85;;
62911;SDS011;49111;51.028;4.218;2023-12-28T03:41:49;3.90;;;2.10;;
62911;SDS011;49111;51.028;4.218;2023-12-28T03:44:15;6.10;;;2.92;;
62911;SDS011;49111;51.028;4.218;2023-12-28T03:46:40;7.22;;;2.60;;
62911;SDS011;49111;51.028;4.218;2023-12-28T03:49:06;5.50;;;2.40;;
62911;SDS011;49111;51.028;4.218;2023-12-28T03:51:32;5.13;;;2.38;;
62911;SDS011;49111;51.028;4.218;2023-12-28T03:53:58;6.10;;;2.47;;
62911;SDS011;49111;51.028;4.218;2023-12-28T03:56:25;4.57;;;2.13;;
62911;SDS011;49111;51.028;4.218;2023-12-28T03:58:55;7.03;;;2.55;;
62911;SDS011;49111;51.028;4.218;2023-12-28T04:01:21;4.60;;;2.03;;
62911;SDS011;49111;51.028;4.218;2023-12-28T04:03:48;4.53;;;2.58;;
62911;SDS011;49111;51.028;4.218;2023-12-28T04:06:15;9.35;;;2.10;;
62911;SDS011;49111;51.028;4.218;2023-12-28T04:08:41;5.57;;;2.42;;
62911;SDS011;49111;51.028;4.218;2023-12-28T04:11:08;4.47;;;2.38;;
62911;SDS011;49111;51.028;4.218;2023-12-28T04:13:34;4.38;;;2.42;;
62911;SDS011;49111;51.028;4.218;2023-12-28T04:16:00;4.78;;;2.00;;
62911;SDS011;49111;51.028;4.218;2023-12-28T04:18:26;5.57;;;2.28;;
62911;SDS011;49111;51.028;4.218;2023-12-28T04:20:53;5.35;;;2.53;;
62911;SDS011;49111;51.028;4.218;2023-12-28T04:23:19;3.55;;;2.70;;
62911;SDS011;49111;51.028;4.218;2023-12-28T04:25:45;6.70;;;2.38;;
62911;SDS011;49111;51.028;4.218;2023-12-28T04:28:10;4.47;;;2.15;;
62911;SDS011;49111;51.028;4.218;2023-12-28T04:30:36;6.25;;;2.17;;
62911;SDS011;49111;51.028;4.218;2023-12-28T04:33:03;5.78;;;1.77;;
62911;SDS011;49111;51.028;4.218;2023-12-28T04:35:29;5.90;;;2.45;;
62911;SDS011;49111;51.028;4.218;2023-12-28T04:37:56;6.95;;;2.92;;
62911;SDS011;49111;51.028;4.218;2023-12-28T04:40:22;6.25;;;2.35;;
62911;SDS011;49111;51.028;4.218;2023-12-28T04:42:48;3.65;;;2.00;;
62911;SDS011;49111;51.028;4.218;2023-12-28T04:45:14;11.43;;;2.30;;
62911;SDS011;49111;51.028;4.218;2023-12-28T04:47:40;5.20;;;1.98;;
62911;SDS011;49111;51.028;4.218;2023-12-28T04:50:06;5.75;;;2.42;;
62911;SDS011;49111;51.028;4.218;2023-12-28T04:52:33;6.78;;;2.00;;
62911;SDS011;49111;51.028;4.218;2023-12-28T04:54:59;8.18;;;2.65;;
62911;SDS011;49111;51.028;4.218;2023-12-28T04:57:26;5.07;;;2.15;;
62911;SDS011;49111;51.028;4.218;2023-12-28T04:59:53;6.50;;;2.38;;
62911;SDS011;49111;51.028;4.218;2023-12-28T05:02:20;6.43;;;2.03;;
62911;SDS011;49111;51.028;4.218;2023-12-28T05:04:46;11.40;;;2.40;;
62911;SDS011;49111;51.028;4.218;2023-12-28T05:07:11;6.45;;;2.45;;
62911;SDS011;49111;51.028;4.218;2023-12-28T05:09:37;11.10;;;2.50;;
62911;SDS011;49111;51.028;4.218;2023-12-28T05:12:03;10.40;;;2.63;;
62911;SDS011;49111;51.028;4.218;2023-12-28T05:14:29;8.05;;;2.45;;
62911;SDS011;49111;51.028;4.218;2023-12-28T05:16:55;6.32;;;2.60;;
62911;SDS011;49111;51.028;4.218;2023-12-28T05:19:21;6.72;;;2.05;;
62911;SDS011;49111;51.028;4.218;2023-12-28T05:21:47;6.45;;;2.17;;
62911;SDS011;49111;51.028;4.218;2023-12-28T05:24:13;7.15;;;2.28;;
62911;SDS011;49111;51.028;4.218;2023-12-28T05:26:39;8.88;;;2.42;;
62911;SDS011;49111;51.028;4.218;2023-12-28T05:29:04;6.20;;;2.75;;
62911;SDS011;49111;51.028;4.218;2023-12-28T05:31:30;7.20;;;2.28;;
62911;SDS011;49111;51.028;4.218;2023-12-28T05:33:56;8.20;;;2.55;;
62911;SDS011;49111;51.028;4.218;2023-12-28T05:36:23;7.28;;;2.50;;
62911;SDS011;49111;51.028;4.218;2023-12-28T05:38:50;6.82;;;2.05;;
62911;SDS011;49111;51.028;4.218;2023-12-28T05:41:16;8.05;;;1.92;;
62911;SDS011;49111;51.028;4.218;2023-12-28T05:43:42;11.60;;;2.90;;
62911;SDS011;49111;51.028;4.218;2023-12-28T05:46:07;9.18;;;2.47;;
62911;SDS011;49111;51.028;4.218;2023-12-28T05:48:33;6.32;;;2.50;;
62911;SDS011;49111;51.028;4.218;2023-12-28T05:50:59;11.20;;;4.55;;
62911;SDS011;49111;51.028;4.218;2023-12-28T05:53:26;6.47;;;2.95;;
62911;SDS011;49111;51.028;4.218;2023-12-28T05:55:53;8.90;;;2.35;;
62911;SDS011;49111;51.028;4.218;2023-12-28T05:58:19;8.38;;;2.60;;
62911;SDS011;49111;51.028;4.218;2023-12-28T06:00:44;10.38;;;2.00;;
62911;SDS011;49111;51.028;4.218;2023-12-28T06:03:14;6.78;;;2.25;;
62911;SDS011;49111;51.028;4.218;2023-12-28T06:05:40;7.20;;;1.88;;
62911;SDS011;49111;51.028;4.218;2023-12-28T06:08:06;10.32;;;2.28;;
62911;SDS011;49111;51.028;4.218;2023-12-28T06:10:33;8.35;;;2.25;;
62911;SDS011;49111;51.028;4.218;2023-12-28T06:12:59;9.60;;;2.53;;
62911;SDS011;49111;51.028;4.218;2023-12-28T06:17:54;7.85;;;2.50;;
62911;SDS011;49111;51.028;4.218;2023-12-28T06:20:21;12.32;;;3.17;;
62911;SDS011;49111;51.028;4.218;2023-12-28T06:22:47;12.18;;;2.55;;
62911;SDS011;49111;51.028;4.218;2023-12-28T06:25:14;6.85;;;2.28;;
62911;SDS011;49111;51.028;4.218;2023-12-28T06:27:40;12.43;;;2.97;;
62911;SDS011;49111;51.028;4.218;2023-12-28T06:30:06;9.65;;;2.30;;
62911;SDS011;49111;51.028;4.218;2023-12-28T06:32:33;7.05;;;2.85;;
62911;SDS011;49111;51.028;4.218;2023-12-28T06:34:58;8.75;;;3.00;;
62911;SDS011;49111;51.028;4.218;2023-12-28T06:37:25;10.70;;;2.30;;
62911;SDS011;49111;51.028;4.218;2023-12-28T06:39:51;5.93;;;2.45;;
62911;SDS011;49111;51.028;4.218;2023-12-28T06:42:17;9.90;;;2.45;;
62911;SDS011;49111;51.028;4.218;2023-12-28T06:44:43;11.27;;;3.42;;
62911;SDS011;49111;51.028;4.218;2023-12-28T06:47:08;9.65;;;2.30;;
62911;SDS011;49111;51.028;4.218;2023-12-28T06:49:34;6.50;;;2.42;;
62911;SDS011;49111;51.028;4.218;2023-12-28T06:52:00;7.95;;;2.70;;
62911;SDS011;49111;51.028;4.218;2023-12-28T06:54:26;9.82;;;2.65;;
62911;SDS011;49111;51.028;4.218;2023-12-28T06:56:52;12.30;;;3.22;;
62911;SDS011;49111;51.028;4.218;2023-12-28T06:59:17;8.05;;;2.28;;
62911;SDS011;49111;51.028;4.218;2023-12-28T07:01:43;10.60;;;2.70;;
62911;SDS011;49111;51.028;4.218;2023-12-28T07:04:10;7.82;;;2.70;;
62911;SDS011;49111;51.028;4.218;2023-12-28T07:06:37;7.90;;;2.30;;
62911;SDS011;49111;51.028;4.218;2023-12-28T07:09:03;10.98;;;2.42;;
62911;SDS011;49111;51.028;4.218;2023-12-28T07:11:30;8.63;;;2.05;;
62911;SDS011;49111;51.028;4.218;2023-12-28T07:13:56;7.40;;;2.67;;
62911;SDS011;49111;51.028;4.218;2023-12-28T07:16:21;12.90;;;2.88;;
62911;SDS011;49111;51.028;4.218;2023-12-28T07:18:47;9.52;;;2.92;;
62911;SDS011;49111;51.028;4.218;2023-12-28T07:21:13;6.63;;;2.35;;
62911;SDS011;49111;51.028;4.218;2023-12-28T07:23:39;11.70;;;2.58;;
62911;SDS011;49111;51.028;4.218;2023-12-28T07:26:05;9.75;;;2.70;;
62911;SDS011;49111;51.028;4.218;2023-12-28T07:28:31;7.63;;;2.53;;
62911;SDS011;49111;51.028;4.218;2023-12-28T07:30:56;8.95;;;2.90;;
62911;SDS011;49111;51.028;4.218;2023-12-28T07:33:22;7.00;;;2.85;;
62911;SDS011;49111;51.028;4.218;2023-12-28T07:35:48;10.13;;;2.33;;
62911;SDS011;49111;51.028;4.218;2023-12-28T07:38:14;6.80;;;2.40;;
62911;SDS011;49111;51.028;4.218;2023-12-28T07:40:40;13.07;;;2.17;;
62911;SDS011;49111;51.028;4.218;2023-12-28T07:43:06;11.52;;;2.67;;
62911;SDS011;49111;51.028;4.218;2023-12-28T07:45:32;9.25;;;2.58;;
62911;SDS011;49111;51.028;4.218;2023-12-28T07:48:01;10.80;;;2.65;;
62911;SDS011;49111;51.028;4.218;2023-12-28T07:50:27;9.18;;;2.45;;
62911;SDS011;49111;51.028;4.218;2023-12-28T07:52:53;8.48;;;2.35;;
62911;SDS011;49111;51.028;4.218;2023-12-28T07:55:19;6.45;;;2.15;;
62911;SDS011;49111;51.028;4.218;2023-12-28T07:57:45;10.55;;;2.00;;
62911;SDS011;49111;51.028;4.218;2023-12-28T08:00:11;13.27;;;2.65;;
62911;SDS011;49111;51.028;4.218;2023-12-28T08:02:37;9.00;;;2.35;;
62911;SDS011;49111;51.028;4.218;2023-12-28T08:05:03;7.43;;;1.98;;
62911;SDS011;49111;51.028;4.218;2023-12-28T08:07:30;6.13;;;1.98;;
62911;SDS011;49111;51.028;4.218;2023-12-28T08:09:56;8.77;;;2.33;;
62911;SDS011;49111;51.028;4.218;2023-12-28T08:12:22;10.75;;;2.72;;
62911;SDS011;49111;51.028;4.218;2023-12-28T08:14:49;6.82;;;3.42;;
62911;SDS011;49111;51.028;4.218;2023-12-28T08:17:15;13.32;;;2.72;;
62911;SDS011;49111;51.028;4.218;2023-12-28T08:19:41;13.00;;;2.45;;
62911;SDS011;49111;51.028;4.218;2023-12-28T08:22:08;9.95;;;2.63;;
62911;SDS011;49111;51.028;4.218;2023-12-28T08:24:34;9.93;;;1.92;;
62911;SDS011;49111;51.028;4.218;2023-12-28T08:27:01;8.35;;;2.80;;
62911;SDS011;49111;51.028;4.218;2023-12-28T08:29:28;7.40;;;2.83;;
62911;SDS011;49111;51.028;4.218;2023-12-28T08:31:54;12.05;;;2.67;;
62911;SDS011;49111;51.028;4.218;2023-12-28T08:34:21;12.07;;;2.42;;
62911;SDS011;49111;51.028;4.218;2023-12-28T08:36:47;8.90;;;2.50;;
62911;SDS011;49111;51.028;4.218;2023-12-28T08:39:13;10.82;;;2.67;;
62911;SDS011;49111;51.028;4.218;2023-12-28T08:41:38;9.40;;;2.63;;
62911;SDS011;49111;51.028;4.218;2023-12-28T08:44:04;6.75;;;2.60;;
62911;SDS011;49111;51.028;4.218;2023-12-28T08:46:31;13.43;;;2.50;;
62911;SDS011;49111;51.028;4.218;2023-12-28T08:48:57;10.20;;;2.40;;
62911;SDS011;49111;51.028;4.218;2023-12-28T08:51:23;15.77;;;3.70;;
62911;SDS011;49111;51.028;4.218;2023-12-28T08:53:49;8.50;;;1.92;;
62911;SDS011;49111;51.028;4.218;2023-12-28T08:56:19;9.48;;;3.03;;
62911;SDS011;49111;51.028;4.218;2023-12-28T08:58:45;12.85;;;2.33;;
62911;SDS011;49111;51.028;4.218;2023-12-28T09:01:20;10.13;;;2.88;;
62911;SDS011;49111;51.028;4.218;2023-12-28T09:03:50;9.55;;;3.22;;
62911;SDS011;49111;51.028;4.218;2023-12-28T09:06:18;11.77;;;2.63;;
62911;SDS011;49111;51.028;4.218;2023-12-28T09:08:44;14.63;;;2.63;;
62911;SDS011;49111;51.028;4.218;2023-12-28T09:11:13;12.18;;;2.10;;
62911;SDS011;49111;51.028;4.218;2023-12-28T09:13:39;12.23;;;2.80;;
62911;SDS011;49111;51.028;4.218;2023-12-28T09:16:10;8.60;;;2.22;;
62911;SDS011;49111;51.028;4.218;2023-12-28T09:18:38;14.73;;;2.85;;
62911;SDS011;49111;51.028;4.218;2023-12-28T09:21:05;11.85;;;2.28;;
62911;SDS011;49111;51.028;4.218;2023-12-28T09:23:32;8.50;;;2.47;;
62911;SDS011;49111;51.028;4.218;2023-12-28T09:25:59;10.38;;;2.55;;
62911;SDS011;49111;51.028;4.218;2023-12-28T09:28:26;9.07;;;3.08;;
62911;SDS011;49111;51.028;4.218;2023-12-28T09:30:52;8.20;;;2.97;;
62911;SDS011;49111;51.028;4.218;2023-12-28T09:33:18;10.95;;;4.28;;
62911;SDS011;49111;51.028;4.218;2023-12-28T09:35:44;13.10;;;2.47;;
62911;SDS011;49111;51.028;4.218;2023-12-28T09:38:10;11.40;;;2.83;;
62911;SDS011;49111;51.028;4.218;2023-12-28T09:40:36;18.92;;;3.55;;
62911;SDS011;49111;51.028;4.218;2023-12-28T09:43:13;9.07;;;2.72;;
62911;SDS011;49111;51.028;4.218;2023-12-28T09:45:49;13.95;;;3.17;;
62911;SDS011;49111;51.028;4.218;2023-12-28T09:48:16;10.73;;;2.30;;
62911;SDS011;49111;51.028;4.218;2023-12-28T09:50:44;11.90;;;2.97;;
62911;SDS011;49111;51.028;4.218;2023-12-28T09:53:25;14.13;;;3.50;;
62911;SDS011;49111;51.028;4.218;2023-12-28T09:55:52;10.10;;;2.28;;
62911;SDS011;49111;51.028;4.218;2023-12-28T09:58:19;16.10;;;2.80;;
62911;SDS011;49111;51.028;4.218;2023-12-28T10:00:46;10.18;;;3.38;;
62911;SDS011;49111;51.028;4.218;2023-12-28T10:03:13;14.98;;;2.67;;
62911;SDS011;49111;51.028;4.218;2023-12-28T10:05:41;11.77;;;2.88;;
62911;SDS011;49111;51.028;4.218;2023-12-28T10:08:08;7.93;;;3.00;;
62911;SDS011;49111;51.028;4.218;2023-12-28T10:10:36;10.77;;;3.42;;
62911;SDS011;49111;51.028;4.218;2023-12-28T10:13:02;12.70;;;3.17;;
62911;SDS011;49111;51.028;4.218;2023-12-28T10:15:28;12.18;;;3.38;;
62911;SDS011;49111;51.028;4.218;2023-12-28T10:17:56;11.13;;;2.28;;
62911;SDS011;49111;51.028;4.218;2023-12-28T10:20:22;15.07;;;2.83;;
62911;SDS011;49111;51.028;4.218;2023-12-28T10:22:52;9.30;;;2.50;;
62911;SDS011;49111;51.028;4.218;2023-12-28T10:25:18;8.25;;;2.78;;
62911;SDS011;49111;51.028;4.218;2023-12-28T10:27:44;9.32;;;2.85;;
62911;SDS011;49111;51.028;4.218;2023-12-28T10:30:10;13.20;;;4.38;;
62911;SDS011;49111;51.028;4.218;2023-12-28T10:32:39;16.13;;;3.13;;
62911;SDS011;49111;51.028;4.218;2023-12-28T10:35:05;18.85;;;4.57;;
62911;SDS011;49111;51.028;4.218;2023-12-28T10:37:32;12.70;;;3.28;;
62911;SDS011;49111;51.028;4.218;2023-12-28T10:40:00;14.57;;;3.90;;
62911;SDS011;49111;51.028;4.218;2023-12-28T10:42:32;20.30;;;3.53;;
62911;SDS011;49111;51.028;4.218;2023-12-28T10:45:05;8.20;;;2.30;;
62911;SDS011;49111;51.028;4.218;2023-12-28T10:47:38;11.13;;;2.65;;
62911;SDS011;49111;51.028;4.218;2023-12-28T11:02:09;18.70;;;3.63;;
62911;SDS011;49111;51.028;4.218;2023-12-28T11:04:48;9.43;;;2.40;;
62911;SDS011;49111;51.028;4.218;2023-12-28T11:07:17;13.25;;;3.25;;
62911;SDS011;49111;51.028;4.218;2023-12-28T11:09:44;14.35;;;3.10;;
62911;SDS011;49111;51.028;4.218;2023-12-28T11:12:11;9.48;;;2.88;;
62911;SDS011;49111;51.028;4.218;2023-12-28T11:14:40;11.20;;;2.83;;
62911;SDS011;49111;51.028;4.218;2023-12-28T11:17:06;10.32;;;2.80;;
62911;SDS011;49111;51.028;4.218;2023-12-28T11:19:34;9.52;;;2.92;;
62911;SDS011;49111;51.028;4.218;2023-12-28T11:22:03;12.20;;;3.15;;
62911;SDS011;49111;51.028;4.218;2023-12-28T11:24:30;17.27;;;3.50;;
62911;SDS011;49111;51.028;4.218;2023-12-28T11:26:57;11.05;;;2.63;;
62911;SDS011;49111;51.028;4.218;2023-12-28T11:29:23;8.68;;;2.58;;
62911;SDS011;49111;51.028;4.218;2023-12-28T11:31:57;7.55;;;2.78;;
62911;SDS011;49111;51.028;4.218;2023-12-28T11:34:30;15.15;;;3.45;;
62911;SDS011;49111;51.028;4.218;2023-12-28T11:37:01;15.07;;;3.60;;
62911;SDS011;49111;51.028;4.218;2023-12-28T11:39:34;14.20;;;3.97;;
62911;SDS011;49111;51.028;4.218;2023-12-28T11:42:03;9.23;;;3.05;;
62911;SDS011;49111;51.028;4.218;2023-12-28T11:44:31;10.82;;;2.97;;
62911;SDS011;49111;51.028;4.218;2023-12-28T11:47:13;11.00;;;3.75;;
62911;SDS011;49111;51.028;4.218;2023-12-28T11:49:46;10.60;;;2.75;;
62911;SDS011;49111;51.028;4.218;2023-12-28T11:52:28;10.70;;;2.97;;
62911;SDS011;49111;51.028;4.218;2023-12-28T11:54:55;11.32;;;2.60;;
62911;SDS011;49111;51.028;4.218;2023-12-28T11:57:21;12.18;;;3.55;;
62911;SDS011;49111;51.028;4.218;2023-12-28T11:59:48;11.70;;;3.00;;
62911;SDS011;49111;51.028;4.218;2023-12-28T12:02:19;12.40;;;2.55;;
62911;SDS011;49111;51.028;4.218;2023-12-28T12:04:45;13.13;;;3.55;;
62911;SDS011;49111;51.028;4.218;2023-12-28T12:07:11;11.13;;;3.53;;
62911;SDS011;49111;51.028;4.218;2023-12-28T12:09:37;9.73;;;2.78;;
62911;SDS011;49111;51.028;4.218;2023-12-28T12:12:03;8.02;;;2.72;;
62911;SDS011;49111;51.028;4.218;2023-12-28T12:14:30;15.23;;;3.75;;
62911;SDS011;49111;51.028;4.218;2023-12-28T12:16:59;18.30;;;4.28;;
62911;SDS011;49111;51.028;4.218;2023-12-28T12:19:26;13.60;;;4.18;;
62911;SDS011;49111;51.028;4.218;2023-12-28T12:21:52;19.60;;;3.70;;
62911;SDS011;49111;51.028;4.218;2023-12-28T12:24:19;16.33;;;2.75;;
62911;SDS011;49111;51.028;4.218;2023-12-28T12:26:46;12.98;;;3.03;;
62911;SDS011;49111;51.028;4.218;2023-12-28T12:29:12;15.77;;;3.40;;
62911;SDS011;49111;51.028;4.218;2023-12-28T12:31:41;11.77;;;3.15;;
62911;SDS011;49111;51.028;4.218;2023-12-28T12:34:13;9.93;;;2.70;;
62911;SDS011;49111;51.028;4.218;2023-12-28T12:36:42;20.73;;;2.85;;
62911;SDS011;49111;51.028;4.218;2023-12-28T12:39:12;12.68;;;2.70;;
62911;SDS011;49111;51.028;4.218;2023-12-28T12:41:38;9.32;;;2.90;;
62911;SDS011;49111;51.028;4.218;2023-12-28T12:44:05;13.13;;;4.38;;
62911;SDS011;49111;51.028;4.218;2023-12-28T12:46:31;15.63;;;3.60;;
62911;SDS011;49111;51.028;4.218;2023-12-28T12:48:57;13.05;;;2.83;;
62911;SDS011;49111;51.028;4.218;2023-12-28T12:51:27;10.40;;;2.90;;
62911;SDS011;49111;51.028;4.218;2023-12-28T12:53:57;10.50;;;3.45;;
62911;SDS011;49111;51.028;4.218;2023-12-28T12:56:26;10.65;;;2.90;;
62911;SDS011;49111;51.028;4.218;2023-12-28T12:58:54;15.48;;;2.63;;
62911;SDS011;49111;51.028;4.218;2023-12-28T13:01:20;11.05;;;3.30;;
62911;SDS011;49111;51.028;4.218;2023-12-28T13:03:47;13.95;;;2.95;;
62911;SDS011;49111;51.028;4.218;2023-12-28T13:06:12;11.80;;;3.35;;
62911;SDS011;49111;51.028;4.218;2023-12-28T13:08:38;7.45;;;2.33;;
62911;SDS011;49111;51.028;4.218;2023-12-28T13:11:08;9.57;;;2.60;;
62911;SDS011;49111;51.028;4.218;2023-12-28T13:13:34;12.88;;;3.10;;
62911;SDS011;49111;51.028;4.218;2023-12-28T13:16:04;13.50;;;3.08;;
62911;SDS011;49111;51.028;4.218;2023-12-28T13:18:29;14.55;;;3.13;;
62911;SDS011;49111;51.028;4.218;2023-12-28T13:20:55;11.05;;;2.40;;
62911;SDS011;49111;51.028;4.218;2023-12-28T13:23:21;11.32;;;3.17;;
62911;SDS011;49111;51.028;4.218;2023-12-28T13:25:47;9.10;;;2.92;;
62911;SDS011;49111;51.028;4.218;2023-12-28T13:28:13;11.02;;;2.90;;
62911;SDS011;49111;51.028;4.218;2023-12-28T13:30:39;10.23;;;2.50;;
62911;SDS011;49111;51.028;4.218;2023-12-28T13:33:05;9.70;;;3.47;;
62911;SDS011;49111;51.028;4.218;2023-12-28T13:35:31;13.13;;;3.10;;
62911;SDS011;49111;51.028;4.218;2023-12-28T13:38:00;11.13;;;3.60;;
62911;SDS011;49111;51.028;4.218;2023-12-28T13:40:27;7.50;;;2.40;;
62911;SDS011;49111;51.028;4.218;2023-12-28T13:42:53;12.60;;;2.80;;
62911;SDS011;49111;51.028;4.218;2023-12-28T13:45:19;16.30;;;4.38;;
62911;SDS011;49111;51.028;4.218;2023-12-28T13:47:45;10.70;;;2.60;;
62911;SDS011;49111;51.028;4.218;2023-12-28T13:50:11;8.65;;;2.58;;
62911;SDS011;49111;51.028;4.218;2023-12-28T13:52:37;12.77;;;2.72;;
62911;SDS011;49111;51.028;4.218;2023-12-28T13:55:03;9.27;;;2.70;;
62911;SDS011;49111;51.028;4.218;2023-12-28T13:57:29;11.35;;;2.40;;
62911;SDS011;49111;51.028;4.218;2023-12-28T13:59:54;15.20;;;3.53;;
62911;SDS011;49111;51.028;4.218;2023-12-28T14:02:25;11.38;;;2.83;;
62911;SDS011;49111;51.028;4.218;2023-12-28T14:04:54;13.35;;;3.03;;
62911;SDS011;49111;51.028;4.218;2023-12-28T14:07:21;11.35;;;3.70;;
62911;SDS011;49111;51.028;4.218;2023-12-28T14:09:48;15.60;;;3.65;;
62911;SDS011;49111;51.028;4.218;2023-12-28T14:12:13;14.68;;;2.08;;
62911;SDS011;49111;51.028;4.218;2023-12-28T14:14:40;6.63;;;2.50;;
62911;SDS011;49111;51.028;4.218;2023-12-28T14:17:05;12.57;;;2.88;;
62911;SDS011;49111;51.028;4.218;2023-12-28T14:19:32;12.05;;;2.92;;
62911;SDS011;49111;51.028;4.218;2023-12-28T14:22:00;8.57;;;2.38;;
62911;SDS011;49111;51.028;4.218;2023-12-28T14:24:26;11.02;;;2.58;;
62911;SDS011;49111;51.028;4.218;2023-12-28T14:26:53;14.23;;;3.40;;
62911;SDS011;49111;51.028;4.218;2023-12-28T14:29:20;14.88;;;2.63;;
62911;SDS011;49111;51.028;4.218;2023-12-28T14:31:49;7.85;;;1.95;;
62911;SDS011;49111;51.028;4.218;2023-12-28T14:34:15;12.55;;;2.58;;
62911;SDS011;49111;51.028;4.218;2023-12-28T14:36:41;7.90;;;2.50;;
62911;SDS011;49111;51.028;4.218;2023-12-28T14:39:15;12.68;;;3.28;;
62911;SDS011;49111;51.028;4.218;2023-12-28T14:41:44;14.20;;;2.83;;
62911;SDS011;49111;51.028;4.218;2023-12-28T14:44:11;11.18;;;3.17;;
62911;SDS011;49111;51.028;4.218;2023-12-28T14:46:37;15.32;;;4.28;;
62911;SDS011;49111;51.028;4.218;2023-12-28T14:49:03;11.77;;;3.50;;
62911;SDS011;49111;51.028;4.218;2023-12-28T14:51:29;12.60;;;2.85;;
62911;SDS011;49111;51.028;4.218;2023-12-28T14:53:56;8.80;;;2.95;;
62911;SDS011;49111;51.028;4.218;2023-12-28T14:56:22;13.45;;;4.35;;
62911;SDS011;49111;51.028;4.218;2023-12-28T14:58:47;7.88;;;2.38;;